sensor_id;sensor_type;location;lat;lon;timestamp;temperature;humidity
7388;DHT22;3735;50.136;11.062;2023-03-13T00:01:36;9.20;99.90
7388;DHT22;3735;50.136;11.062;2023-03-13T00:04:07;9.20;99.90
7388;DHT22;3735;50.136;11.062;2023-03-13T00:06:35;9.20;99.90
7388;DHT22;3735;50.136;11.062;2023-03-13T00:09:05;9.20;99.90
7388;DHT22;3735;50.136;11.062;2023-03-13T00:11:33;9.20;99.90
7388;DHT22;3735;50.136;11.062;2023-03-13T00:14:00;9.30;99.90
7388;DHT22;3735;50.136;11.062;2023-03-13T00:16:27;9.30;99.90
7388;DHT22;3735;50.136;11.062;2023-03-13T00:18:55;9.20;99.90
7388;DHT22;3735;50.136;11.062;2023-03-13T00:21:24;9.20;99.90
7388;DHT22;3735;50.136;11.062;2023-03-13T00:23:51;9.10;99.90
7388;DHT22;3735;50.136;11.062;2023-03-13T00:26:19;9.10;99.90
7388;DHT22;3735;50.136;11.062;2023-03-13T00:28:47;9.20;99.90
7388;DHT22;3735;50.136;11.062;2023-03-13T00:31:24;9.20;99.90
7388;DHT22;3735;50.136;11.062;2023-03-13T00:33:54;9.20;99.90
7388;DHT22;3735;50.136;11.062;2023-03-13T00:36:28;9.20;99.90
7388;DHT22;3735;50.136;11.062;2023-03-13T00:38:56;9.20;99.90
7388;DHT22;3735;50.136;11.062;2023-03-13T00:41:28;9.20;99.90
7388;DHT22;3735;50.136;11.062;2023-03-13T00:43:56;9.20;99.90
7388;DHT22;3735;50.136;11.062;2023-03-13T00:46:24;9.20;99.90
7388;DHT22;3735;50.136;11.062;2023-03-13T00:48:51;9.20;99.90
7388;DHT22;3735;50.136;11.062;2023-03-13T00:51:19;9.20;99.90
7388;DHT22;3735;50.136;11.062;2023-03-13T00:53:46;9.10;99.90
7388;DHT22;3735;50.136;11.062;2023-03-13T00:56:13;9.10;99.90
7388;DHT22;3735;50.136;11.062;2023-03-13T00:58:42;9.10;99.90
7388;DHT22;3735;50.136;11.062;2023-03-13T01:03:56;9.00;99.90
7388;DHT22;3735;50.136;11.062;2023-03-13T01:06:32;9.00;99.90
7388;DHT22;3735;50.136;11.062;2023-03-13T01:09:00;9.00;99.90
7388;DHT22;3735;50.136;11.062;2023-03-13T01:11:29;8.90;99.90
7388;DHT22;3735;50.136;11.062;2023-03-13T01:13:59;9.00;99.90
7388;DHT22;3735;50.136;11.062;2023-03-13T01:16:28;9.00;99.90
7388;DHT22;3735;50.136;11.062;2023-03-13T01:18:58;9.00;99.90
7388;DHT22;3735;50.136;11.062;2023-03-13T01:21:26;9.00;99.90
7388;DHT22;3735;50.136;11.062;2023-03-13T01:23:53;9.10;99.90
7388;DHT22;3735;50.136;11.062;2023-03-13T01:26:20;9.10;99.90
7388;DHT22;3735;50.136;11.062;2023-03-13T01:28:46;9.00;99.90
7388;DHT22;3735;50.136;11.062;2023-03-13T01:31:21;9.00;99.90
7388;DHT22;3735;50.136;11.062;2023-03-13T01:33:57;9.00;99.90
7388;DHT22;3735;50.136;11.062;2023-03-13T01:36:24;9.00;99.90
7388;DHT22;3735;50.136;11.062;2023-03-13T01:38:52;9.00;99.90
7388;DHT22;3735;50.136;11.062;2023-03-13T01:41:21;8.90;99.90
7388;DHT22;3735;50.136;11.062;2023-03-13T01:43:47;8.90;99.90
7388;DHT22;3735;50.136;11.062;2023-03-13T01:46:19;9.10;99.90
7388;DHT22;3735;50.136;11.062;2023-03-13T01:52:02;8.90;99.90
7388;DHT22;3735;50.136;11.062;2023-03-13T01:54:40;9.00;99.90
7388;DHT22;3735;50.136;11.062;2023-03-13T01:57:30;8.90;99.90
7388;DHT22;3735;50.136;11.062;2023-03-13T02:00:03;8.90;99.90
7388;DHT22;3735;50.136;11.062;2023-03-13T02:02:33;8.80;99.90
7388;DHT22;3735;50.136;11.062;2023-03-13T02:05:04;8.90;99.90
7388;DHT22;3735;50.136;11.062;2023-03-13T02:07:44;8.80;99.90
7388;DHT22;3735;50.136;11.062;2023-03-13T02:10:16;8.80;99.90
7388;DHT22;3735;50.136;11.062;2023-03-13T02:12:43;8.90;99.90
7388;DHT22;3735;50.136;11.062;2023-03-13T02:15:17;8.90;99.90
7388;DHT22;3735;50.136;11.062;2023-03-13T02:17:47;8.90;99.90
7388;DHT22;3735;50.136;11.062;2023-03-13T02:20:16;8.90;99.90
7388;DHT22;3735;50.136;11.062;2023-03-13T02:22:55;8.90;99.90
7388;DHT22;3735;50.136;11.062;2023-03-13T02:25:38;8.80;99.90
7388;DHT22;3735;50.136;11.062;2023-03-13T02:28:16;8.80;99.90
7388;DHT22;3735;50.136;11.062;2023-03-13T02:30:46;8.80;99.90
7388;DHT22;3735;50.136;11.062;2023-03-13T02:33:15;8.70;99.90
7388;DHT22;3735;50.136;11.062;2023-03-13T02:35:44;8.60;99.90
7388;DHT22;3735;50.136;11.062;2023-03-13T02:38:14;8.50;99.90
7388;DHT22;3735;50.136;11.062;2023-03-13T02:40:46;8.40;99.90
7388;DHT22;3735;50.136;11.062;2023-03-13T02:43:31;8.40;99.90
7388;DHT22;3735;50.136;11.062;2023-03-13T02:46:00;8.40;99.90
7388;DHT22;3735;50.136;11.062;2023-03-13T02:48:41;8.50;99.90
7388;DHT22;3735;50.136;11.062;2023-03-13T02:54:30;8.60;99.90
7388;DHT22;3735;50.136;11.062;2023-03-13T02:57:01;8.60;99.90
7388;DHT22;3735;50.136;11.062;2023-03-13T02:59:29;8.70;99.90
7388;DHT22;3735;50.136;11.062;2023-03-13T03:01:55;9.00;99.90
7388;DHT22;3735;50.136;11.062;2023-03-13T03:04:23;8.90;99.90
7388;DHT22;3735;50.136;11.062;2023-03-13T03:06:51;9.00;99.90
7388;DHT22;3735;50.136;11.062;2023-03-13T03:09:18;9.00;99.90
7388;DHT22;3735;50.136;11.062;2023-03-13T03:11:46;9.10;99.90
7388;DHT22;3735;50.136;11.062;2023-03-13T03:14:12;9.10;99.90
7388;DHT22;3735;50.136;11.062;2023-03-13T03:16:39;9.10;99.90
7388;DHT22;3735;50.136;11.062;2023-03-13T03:19:05;9.20;99.90
7388;DHT22;3735;50.136;11.062;2023-03-13T03:21:32;9.20;99.90
7388;DHT22;3735;50.136;11.062;2023-03-13T03:23:58;9.20;99.90
7388;DHT22;3735;50.136;11.062;2023-03-13T03:26:24;9.30;99.90
7388;DHT22;3735;50.136;11.062;2023-03-13T03:28:50;9.30;99.90
7388;DHT22;3735;50.136;11.062;2023-03-13T03:31:16;9.30;99.90
7388;DHT22;3735;50.136;11.062;2023-03-13T03:33:43;9.30;99.90
7388;DHT22;3735;50.136;11.062;2023-03-13T03:36:12;9.30;99.90
7388;DHT22;3735;50.136;11.062;2023-03-13T03:38:43;9.40;99.90
7388;DHT22;3735;50.136;11.062;2023-03-13T03:41:11;9.40;99.90
7388;DHT22;3735;50.136;11.062;2023-03-13T03:43:38;9.30;99.90
7388;DHT22;3735;50.136;11.062;2023-03-13T03:46:05;9.30;99.90
7388;DHT22;3735;50.136;11.062;2023-03-13T03:48:31;9.40;99.90
7388;DHT22;3735;50.136;11.062;2023-03-13T03:50:57;9.40;99.90
7388;DHT22;3735;50.136;11.062;2023-03-13T03:53:23;9.40;99.90
7388;DHT22;3735;50.136;11.062;2023-03-13T03:55:49;9.40;99.90
7388;DHT22;3735;50.136;11.062;2023-03-13T03:58:15;9.40;99.90
7388;DHT22;3735;50.136;11.062;2023-03-13T04:00:45;9.40;99.90
7388;DHT22;3735;50.136;11.062;2023-03-13T04:03:12;9.50;99.90
7388;DHT22;3735;50.136;11.062;2023-03-13T04:05:39;9.50;99.90
7388;DHT22;3735;50.136;11.062;2023-03-13T04:08:06;9.50;99.90
7388;DHT22;3735;50.136;11.062;2023-03-13T04:10:32;9.50;99.90
7388;DHT22;3735;50.136;11.062;2023-03-13T04:12:58;9.50;99.90
7388;DHT22;3735;50.136;11.062;2023-03-13T04:15:23;9.50;99.90
7388;DHT22;3735;50.136;11.062;2023-03-13T04:17:49;9.50;99.90
7388;DHT22;3735;50.136;11.062;2023-03-13T04:20:15;9.60;99.90
7388;DHT22;3735;50.136;11.062;2023-03-13T04:22:41;9.60;99.90
7388;DHT22;3735;50.136;11.062;2023-03-13T04:25:08;9.70;99.90
7388;DHT22;3735;50.136;11.062;2023-03-13T04:27:35;9.70;99.90
7388;DHT22;3735;50.136;11.062;2023-03-13T04:30:00;9.80;99.90
7388;DHT22;3735;50.136;11.062;2023-03-13T04:32:26;9.90;99.90
7388;DHT22;3735;50.136;11.062;2023-03-13T04:34:52;9.90;99.90
7388;DHT22;3735;50.136;11.062;2023-03-13T04:37:18;10.00;99.90
7388;DHT22;3735;50.136;11.062;2023-03-13T04:39:44;9.90;99.90
7388;DHT22;3735;50.136;11.062;2023-03-13T04:42:10;9.90;99.90
7388;DHT22;3735;50.136;11.062;2023-03-13T04:44:36;9.90;99.90
7388;DHT22;3735;50.136;11.062;2023-03-13T04:47:03;9.90;99.90
7388;DHT22;3735;50.136;11.062;2023-03-13T04:49:29;9.90;99.90
7388;DHT22;3735;50.136;11.062;2023-03-13T04:51:55;10.00;99.90
7388;DHT22;3735;50.136;11.062;2023-03-13T04:54:21;10.00;99.90
7388;DHT22;3735;50.136;11.062;2023-03-13T04:56:47;10.10;99.90
7388;DHT22;3735;50.136;11.062;2023-03-13T04:59:14;10.10;99.90
7388;DHT22;3735;50.136;11.062;2023-03-13T05:01:41;10.10;99.90
7388;DHT22;3735;50.136;11.062;2023-03-13T05:04:08;10.20;99.90
7388;DHT22;3735;50.136;11.062;2023-03-13T05:06:34;10.20;99.90
7388;DHT22;3735;50.136;11.062;2023-03-13T05:09:01;10.10;99.90
7388;DHT22;3735;50.136;11.062;2023-03-13T05:11:28;10.00;99.90
7388;DHT22;3735;50.136;11.062;2023-03-13T05:13:54;9.90;99.90
7388;DHT22;3735;50.136;11.062;2023-03-13T05:16:20;9.80;99.90
7388;DHT22;3735;50.136;11.062;2023-03-13T05:18:46;9.70;99.90
7388;DHT22;3735;50.136;11.062;2023-03-13T05:21:12;9.60;99.90
7388;DHT22;3735;50.136;11.062;2023-03-13T05:23:38;9.30;99.90
7388;DHT22;3735;50.136;11.062;2023-03-13T05:26:03;9.10;99.90
7388;DHT22;3735;50.136;11.062;2023-03-13T05:28:30;8.90;99.90
7388;DHT22;3735;50.136;11.062;2023-03-13T05:30:56;8.80;99.90
7388;DHT22;3735;50.136;11.062;2023-03-13T05:33:21;8.60;99.90
7388;DHT22;3735;50.136;11.062;2023-03-13T05:35:47;8.50;99.90
7388;DHT22;3735;50.136;11.062;2023-03-13T05:38:13;8.40;99.90
7388;DHT22;3735;50.136;11.062;2023-03-13T05:40:39;8.30;99.90
7388;DHT22;3735;50.136;11.062;2023-03-13T05:43:05;8.20;99.90
7388;DHT22;3735;50.136;11.062;2023-03-13T05:45:34;8.10;99.90
7388;DHT22;3735;50.136;11.062;2023-03-13T05:47:59;8.00;99.90
7388;DHT22;3735;50.136;11.062;2023-03-13T05:50:25;8.00;99.90
7388;DHT22;3735;50.136;11.062;2023-03-13T05:52:51;8.10;99.90
7388;DHT22;3735;50.136;11.062;2023-03-13T05:55:18;8.00;99.90
7388;DHT22;3735;50.136;11.062;2023-03-13T05:57:45;8.00;99.90
7388;DHT22;3735;50.136;11.062;2023-03-13T06:00:13;8.00;99.90
7388;DHT22;3735;50.136;11.062;2023-03-13T06:02:40;7.90;99.90
7388;DHT22;3735;50.136;11.062;2023-03-13T06:05:07;7.90;99.90
7388;DHT22;3735;50.136;11.062;2023-03-13T06:07:34;8.00;99.90
7388;DHT22;3735;50.136;11.062;2023-03-13T06:10:01;8.00;99.90
7388;DHT22;3735;50.136;11.062;2023-03-13T06:12:28;8.00;99.90
7388;DHT22;3735;50.136;11.062;2023-03-13T06:14:53;8.10;99.90
7388;DHT22;3735;50.136;11.062;2023-03-13T06:17:19;8.20;99.90
7388;DHT22;3735;50.136;11.062;2023-03-13T06:19:46;8.20;99.90
7388;DHT22;3735;50.136;11.062;2023-03-13T06:22:16;8.20;99.90
7388;DHT22;3735;50.136;11.062;2023-03-13T06:24:42;8.20;99.90
7388;DHT22;3735;50.136;11.062;2023-03-13T06:27:14;8.30;99.90
7388;DHT22;3735;50.136;11.062;2023-03-13T06:29:40;8.30;99.90
7388;DHT22;3735;50.136;11.062;2023-03-13T06:32:06;8.30;99.90
7388;DHT22;3735;50.136;11.062;2023-03-13T06:34:37;8.40;99.90
7388;DHT22;3735;50.136;11.062;2023-03-13T06:37:03;8.40;99.90
7388;DHT22;3735;50.136;11.062;2023-03-13T06:39:29;8.50;99.90
7388;DHT22;3735;50.136;11.062;2023-03-13T06:41:55;8.50;99.90
7388;DHT22;3735;50.136;11.062;2023-03-13T06:44:21;8.60;99.90
7388;DHT22;3735;50.136;11.062;2023-03-13T06:46:46;8.70;99.90
7388;DHT22;3735;50.136;11.062;2023-03-13T06:49:12;8.70;99.90
7388;DHT22;3735;50.136;11.062;2023-03-13T06:51:38;8.70;99.90
7388;DHT22;3735;50.136;11.062;2023-03-13T06:54:03;8.80;99.90
7388;DHT22;3735;50.136;11.062;2023-03-13T06:56:29;8.80;99.90
7388;DHT22;3735;50.136;11.062;2023-03-13T06:58:55;8.80;99.90
7388;DHT22;3735;50.136;11.062;2023-03-13T07:01:21;8.80;99.90
7388;DHT22;3735;50.136;11.062;2023-03-13T07:03:47;8.80;99.90
7388;DHT22;3735;50.136;11.062;2023-03-13T07:06:14;8.90;99.90
7388;DHT22;3735;50.136;11.062;2023-03-13T07:08:40;9.10;99.90
7388;DHT22;3735;50.136;11.062;2023-03-13T07:11:08;9.20;99.90
7388;DHT22;3735;50.136;11.062;2023-03-13T07:13:35;9.30;99.90
7388;DHT22;3735;50.136;11.062;2023-03-13T07:16:04;9.40;99.90
7388;DHT22;3735;50.136;11.062;2023-03-13T07:18:32;9.50;99.90
7388;DHT22;3735;50.136;11.062;2023-03-13T07:20:59;9.60;99.90
7388;DHT22;3735;50.136;11.062;2023-03-13T07:23:29;9.60;99.90
7388;DHT22;3735;50.136;11.062;2023-03-13T07:25:57;9.70;99.90
7388;DHT22;3735;50.136;11.062;2023-03-13T07:28:25;9.70;99.90
7388;DHT22;3735;50.136;11.062;2023-03-13T07:30:52;9.80;99.90
7388;DHT22;3735;50.136;11.062;2023-03-13T07:33:18;9.80;99.90
7388;DHT22;3735;50.136;11.062;2023-03-13T07:35:49;9.80;99.90
7388;DHT22;3735;50.136;11.062;2023-03-13T07:38:16;9.80;99.90
7388;DHT22;3735;50.136;11.062;2023-03-13T07:40:53;9.80;99.90
7388;DHT22;3735;50.136;11.062;2023-03-13T07:43:21;9.90;99.90
7388;DHT22;3735;50.136;11.062;2023-03-13T07:45:54;10.00;99.90
7388;DHT22;3735;50.136;11.062;2023-03-13T07:48:23;10.00;99.90
7388;DHT22;3735;50.136;11.062;2023-03-13T07:50:50;10.10;99.90
7388;DHT22;3735;50.136;11.062;2023-03-13T07:53:18;10.10;99.90
7388;DHT22;3735;50.136;11.062;2023-03-13T07:55:53;10.20;99.90
7388;DHT22;3735;50.136;11.062;2023-03-13T07:58:25;10.10;99.90
7388;DHT22;3735;50.136;11.062;2023-03-13T08:00:55;10.00;99.90
7388;DHT22;3735;50.136;11.062;2023-03-13T08:03:22;10.00;99.90
7388;DHT22;3735;50.136;11.062;2023-03-13T08:06:19;10.00;99.90
7388;DHT22;3735;50.136;11.062;2023-03-13T08:08:47;10.10;99.90
7388;DHT22;3735;50.136;11.062;2023-03-13T08:11:18;10.10;99.90
7388;DHT22;3735;50.136;11.062;2023-03-13T08:13:46;10.20;99.90
7388;DHT22;3735;50.136;11.062;2023-03-13T08:16:23;10.30;99.90
7388;DHT22;3735;50.136;11.062;2023-03-13T08:18:53;10.40;99.90
7388;DHT22;3735;50.136;11.062;2023-03-13T08:21:26;10.50;99.90
7388;DHT22;3735;50.136;11.062;2023-03-13T08:23:55;10.70;99.90
7388;DHT22;3735;50.136;11.062;2023-03-13T08:26:27;10.80;99.90
7388;DHT22;3735;50.136;11.062;2023-03-13T08:28:57;10.80;99.90
7388;DHT22;3735;50.136;11.062;2023-03-13T08:31:30;10.90;99.90
7388;DHT22;3735;50.136;11.062;2023-03-13T08:33:58;10.90;99.90
7388;DHT22;3735;50.136;11.062;2023-03-13T08:36:30;11.00;99.90
7388;DHT22;3735;50.136;11.062;2023-03-13T08:38:59;11.10;99.90
7388;DHT22;3735;50.136;11.062;2023-03-13T08:41:29;11.10;99.90
7388;DHT22;3735;50.136;11.062;2023-03-13T08:43:58;11.10;99.90
7388;DHT22;3735;50.136;11.062;2023-03-13T08:46:24;11.00;99.90
7388;DHT22;3735;50.136;11.062;2023-03-13T08:48:54;11.00;99.90
7388;DHT22;3735;50.136;11.062;2023-03-13T08:51:21;11.00;99.90
7388;DHT22;3735;50.136;11.062;2023-03-13T08:53:50;10.90;99.90
7388;DHT22;3735;50.136;11.062;2023-03-13T08:56:18;11.00;99.90
7388;DHT22;3735;50.136;11.062;2023-03-13T08:58:53;11.00;99.90
7388;DHT22;3735;50.136;11.062;2023-03-13T09:01:22;11.00;99.90
7388;DHT22;3735;50.136;11.062;2023-03-13T09:03:49;11.00;99.90
7388;DHT22;3735;50.136;11.062;2023-03-13T09:06:16;11.00;99.90
7388;DHT22;3735;50.136;11.062;2023-03-13T09:08:43;11.10;99.90
7388;DHT22;3735;50.136;11.062;2023-03-13T09:11:11;11.10;99.90
7388;DHT22;3735;50.136;11.062;2023-03-13T09:13:41;11.10;99.90
7388;DHT22;3735;50.136;11.062;2023-03-13T09:16:12;11.10;99.90
7388;DHT22;3735;50.136;11.062;2023-03-13T09:18:39;11.10;99.90
7388;DHT22;3735;50.136;11.062;2023-03-13T09:21:08;11.30;99.90
7388;DHT22;3735;50.136;11.062;2023-03-13T09:23:36;11.40;99.90
7388;DHT22;3735;50.136;11.062;2023-03-13T09:26:02;11.40;99.90
7388;DHT22;3735;50.136;11.062;2023-03-13T09:28:28;11.40;99.90
7388;DHT22;3735;50.136;11.062;2023-03-13T09:30:55;11.40;99.90
7388;DHT22;3735;50.136;11.062;2023-03-13T09:33:30;11.40;99.90
7388;DHT22;3735;50.136;11.062;2023-03-13T09:35:55;11.40;99.90
7388;DHT22;3735;50.136;11.062;2023-03-13T09:38:21;11.50;99.90
7388;DHT22;3735;50.136;11.062;2023-03-13T09:40:49;11.60;99.90
7388;DHT22;3735;50.136;11.062;2023-03-13T09:46:02;11.60;99.90
7388;DHT22;3735;50.136;11.062;2023-03-13T09:48:37;11.50;99.90
7388;DHT22;3735;50.136;11.062;2023-03-13T09:51:16;11.40;99.90
7388;DHT22;3735;50.136;11.062;2023-03-13T09:53:58;11.40;99.90
7388;DHT22;3735;50.136;11.062;2023-03-13T09:56:45;11.40;99.90
7388;DHT22;3735;50.136;11.062;2023-03-13T09:59:44;11.40;99.90
7388;DHT22;3735;50.136;11.062;2023-03-13T10:02:33;11.30;99.90
7388;DHT22;3735;50.136;11.062;2023-03-13T10:05:24;11.40;99.90
7388;DHT22;3735;50.136;11.062;2023-03-13T10:07:57;11.40;99.90
7388;DHT22;3735;50.136;11.062;2023-03-13T10:10:36;11.40;99.90
7388;DHT22;3735;50.136;11.062;2023-03-13T10:13:41;11.40;99.90
7388;DHT22;3735;50.136;11.062;2023-03-13T10:16:40;11.50;99.90
7388;DHT22;3735;50.136;11.062;2023-03-13T10:19:31;11.60;99.90
7388;DHT22;3735;50.136;11.062;2023-03-13T10:22:07;11.70;99.90
7388;DHT22;3735;50.136;11.062;2023-03-13T10:24:57;11.80;99.90
7388;DHT22;3735;50.136;11.062;2023-03-13T10:27:25;11.90;99.90
7388;DHT22;3735;50.136;11.062;2023-03-13T10:29:51;12.00;99.90
7388;DHT22;3735;50.136;11.062;2023-03-13T10:32:17;12.10;99.90
7388;DHT22;3735;50.136;11.062;2023-03-13T10:37:27;12.10;99.90
7388;DHT22;3735;50.136;11.062;2023-03-13T10:40:23;12.00;99.90
7388;DHT22;3735;50.136;11.062;2023-03-13T10:42:53;12.20;99.90
7388;DHT22;3735;50.136;11.062;2023-03-13T10:45:26;12.40;99.90
7388;DHT22;3735;50.136;11.062;2023-03-13T10:48:09;12.60;99.90
7388;DHT22;3735;50.136;11.062;2023-03-13T10:50:45;12.80;99.90
7388;DHT22;3735;50.136;11.062;2023-03-13T10:55:51;13.20;99.90
7388;DHT22;3735;50.136;11.062;2023-03-13T10:58:26;13.60;99.90
7388;DHT22;3735;50.136;11.062;2023-03-13T11:01:28;14.10;99.90
7388;DHT22;3735;50.136;11.062;2023-03-13T11:03:58;14.80;99.90
7388;DHT22;3735;50.136;11.062;2023-03-13T11:06:31;15.20;99.90
7388;DHT22;3735;50.136;11.062;2023-03-13T11:09:14;15.40;99.90
7388;DHT22;3735;50.136;11.062;2023-03-13T11:11:54;15.50;99.90
7388;DHT22;3735;50.136;11.062;2023-03-13T11:14:25;16.30;99.90
7388;DHT22;3735;50.136;11.062;2023-03-13T11:17:03;17.00;99.90
7388;DHT22;3735;50.136;11.062;2023-03-13T11:30:44;15.00;99.90
7388;DHT22;3735;50.136;11.062;2023-03-13T11:33:38;15.10;99.90
7388;DHT22;3735;50.136;11.062;2023-03-13T11:38:58;14.80;99.90
7388;DHT22;3735;50.136;11.062;2023-03-13T12:01:18;16.10;99.90
7388;DHT22;3735;50.136;11.062;2023-03-13T12:04:03;16.20;99.90
7388;DHT22;3735;50.136;11.062;2023-03-13T12:07:05;16.60;99.90
7388;DHT22;3735;50.136;11.062;2023-03-13T12:09:45;16.20;99.90
7388;DHT22;3735;50.136;11.062;2023-03-13T12:15:21;15.00;99.90
7388;DHT22;3735;50.136;11.062;2023-03-13T12:17:59;14.70;99.90
7388;DHT22;3735;50.136;11.062;2023-03-13T12:27:24;14.60;99.90
7388;DHT22;3735;50.136;11.062;2023-03-13T12:35:29;14.50;99.90
7388;DHT22;3735;50.136;11.062;2023-03-13T12:38:24;14.50;99.90
7388;DHT22;3735;50.136;11.062;2023-03-13T12:41:23;14.40;99.90
7388;DHT22;3735;50.136;11.062;2023-03-13T12:43:53;14.40;99.90
7388;DHT22;3735;50.136;11.062;2023-03-13T12:50:06;14.50;99.90
7388;DHT22;3735;50.136;11.062;2023-03-13T13:00:49;14.60;99.90
7388;DHT22;3735;50.136;11.062;2023-03-13T13:03:29;14.90;99.90
7388;DHT22;3735;50.136;11.062;2023-03-13T13:08:40;16.30;99.90
7388;DHT22;3735;50.136;11.062;2023-03-13T13:14:55;17.50;99.90
7388;DHT22;3735;50.136;11.062;2023-03-13T13:30:03;22.80;99.90
7388;DHT22;3735;50.136;11.062;2023-03-13T13:32:54;22.80;99.90
7388;DHT22;3735;50.136;11.062;2023-03-13T13:35:28;23.00;99.90
7388;DHT22;3735;50.136;11.062;2023-03-13T13:41:01;20.80;99.90
7388;DHT22;3735;50.136;11.062;2023-03-13T13:44:19;19.60;99.90
7388;DHT22;3735;50.136;11.062;2023-03-13T13:46:47;18.40;99.90
7388;DHT22;3735;50.136;11.062;2023-03-13T13:49:18;17.90;99.90
7388;DHT22;3735;50.136;11.062;2023-03-13T13:54:51;17.80;99.90
7388;DHT22;3735;50.136;11.062;2023-03-13T13:57:31;17.60;99.90
7388;DHT22;3735;50.136;11.062;2023-03-13T14:00:19;17.50;99.90
7388;DHT22;3735;50.136;11.062;2023-03-13T14:02:53;17.90;99.90
7388;DHT22;3735;50.136;11.062;2023-03-13T14:08:15;18.20;99.90
7388;DHT22;3735;50.136;11.062;2023-03-13T14:10:53;18.00;99.90
7388;DHT22;3735;50.136;11.062;2023-03-13T14:13:29;17.90;99.90
7388;DHT22;3735;50.136;11.062;2023-03-13T14:15:55;17.90;99.90
7388;DHT22;3735;50.136;11.062;2023-03-13T14:18:27;18.10;99.90
7388;DHT22;3735;50.136;11.062;2023-03-13T14:23:44;18.00;99.90
7388;DHT22;3735;50.136;11.062;2023-03-13T14:26:15;18.00;99.90
7388;DHT22;3735;50.136;11.062;2023-03-13T14:28:50;17.90;99.90
7388;DHT22;3735;50.136;11.062;2023-03-13T14:33:55;18.00;99.90
7388;DHT22;3735;50.136;11.062;2023-03-13T14:36:22;18.30;99.90
7388;DHT22;3735;50.136;11.062;2023-03-13T14:39:11;18.70;99.90
7388;DHT22;3735;50.136;11.062;2023-03-13T14:41:46;19.50;99.90
7388;DHT22;3735;50.136;11.062;2023-03-13T14:44:26;20.60;99.90
7388;DHT22;3735;50.136;11.062;2023-03-13T14:46:58;21.00;99.90
7388;DHT22;3735;50.136;11.062;2023-03-13T14:49:28;20.60;99.90
7388;DHT22;3735;50.136;11.062;2023-03-13T14:52:06;20.30;99.90
7388;DHT22;3735;50.136;11.062;2023-03-13T14:57:23;19.30;99.90
7388;DHT22;3735;50.136;11.062;2023-03-13T14:59:51;19.00;99.90
7388;DHT22;3735;50.136;11.062;2023-03-13T15:02:25;19.30;99.90
7388;DHT22;3735;50.136;11.062;2023-03-13T15:05:01;19.20;99.90
7388;DHT22;3735;50.136;11.062;2023-03-13T15:07:40;18.90;99.90
7388;DHT22;3735;50.136;11.062;2023-03-13T15:10:20;19.80;99.90
7388;DHT22;3735;50.136;11.062;2023-03-13T15:12:55;21.20;99.90
7388;DHT22;3735;50.136;11.062;2023-03-13T15:15:21;22.00;99.90
7388;DHT22;3735;50.136;11.062;2023-03-13T15:17:47;22.20;99.90
7388;DHT22;3735;50.136;11.062;2023-03-13T15:20:14;22.30;99.90
7388;DHT22;3735;50.136;11.062;2023-03-13T15:22:42;22.60;99.90
7388;DHT22;3735;50.136;11.062;2023-03-13T15:25:15;22.80;99.90
7388;DHT22;3735;50.136;11.062;2023-03-13T15:27:46;22.60;99.90
7388;DHT22;3735;50.136;11.062;2023-03-13T15:30:20;22.30;99.90
7388;DHT22;3735;50.136;11.062;2023-03-13T15:32:48;22.20;99.90
7388;DHT22;3735;50.136;11.062;2023-03-13T15:37:52;21.90;99.90
7388;DHT22;3735;50.136;11.062;2023-03-13T15:40:18;21.20;99.90
7388;DHT22;3735;50.136;11.062;2023-03-13T15:42:45;20.00;99.90
7388;DHT22;3735;50.136;11.062;2023-03-13T15:45:11;19.10;99.90
7388;DHT22;3735;50.136;11.062;2023-03-13T15:47:36;18.70;99.90
7388;DHT22;3735;50.136;11.062;2023-03-13T15:50:02;18.80;99.90
7388;DHT22;3735;50.136;11.062;2023-03-13T15:52:28;18.60;99.90
7388;DHT22;3735;50.136;11.062;2023-03-13T15:54:55;18.20;99.90
7388;DHT22;3735;50.136;11.062;2023-03-13T15:57:24;18.00;99.90
7388;DHT22;3735;50.136;11.062;2023-03-13T15:59:51;17.90;99.90
7388;DHT22;3735;50.136;11.062;2023-03-13T16:02:20;17.70;99.90
7388;DHT22;3735;50.136;11.062;2023-03-13T16:04:47;17.60;99.90
7388;DHT22;3735;50.136;11.062;2023-03-13T16:07:16;17.50;99.90
7388;DHT22;3735;50.136;11.062;2023-03-13T16:09:44;17.40;99.90
7388;DHT22;3735;50.136;11.062;2023-03-13T16:12:11;17.20;99.90
7388;DHT22;3735;50.136;11.062;2023-03-13T16:14:38;17.00;99.90
7388;DHT22;3735;50.136;11.062;2023-03-13T16:17:15;16.90;99.90
7388;DHT22;3735;50.136;11.062;2023-03-13T16:19:43;16.90;99.90
7388;DHT22;3735;50.136;11.062;2023-03-13T16:22:10;16.80;99.90
7388;DHT22;3735;50.136;11.062;2023-03-13T16:24:37;16.70;99.90
7388;DHT22;3735;50.136;11.062;2023-03-13T16:27:30;16.70;99.90
7388;DHT22;3735;50.136;11.062;2023-03-13T16:29:55;16.70;99.90
7388;DHT22;3735;50.136;11.062;2023-03-13T16:32:21;16.60;99.90
7388;DHT22;3735;50.136;11.062;2023-03-13T16:34:49;16.50;99.90
7388;DHT22;3735;50.136;11.062;2023-03-13T16:37:16;16.50;99.90
7388;DHT22;3735;50.136;11.062;2023-03-13T16:39:44;16.40;99.90
7388;DHT22;3735;50.136;11.062;2023-03-13T16:42:11;16.30;99.90
7388;DHT22;3735;50.136;11.062;2023-03-13T16:44:37;16.30;99.90
7388;DHT22;3735;50.136;11.062;2023-03-13T16:47:27;16.20;99.90
7388;DHT22;3735;50.136;11.062;2023-03-13T16:49:54;16.20;99.90
7388;DHT22;3735;50.136;11.062;2023-03-13T16:52:20;16.20;99.90
7388;DHT22;3735;50.136;11.062;2023-03-13T16:54:46;16.30;99.90
7388;DHT22;3735;50.136;11.062;2023-03-13T16:57:15;16.20;99.90
7388;DHT22;3735;50.136;11.062;2023-03-13T16:59:49;16.20;99.90
7388;DHT22;3735;50.136;11.062;2023-03-13T17:02:18;16.20;99.90
7388;DHT22;3735;50.136;11.062;2023-03-13T17:04:45;16.10;99.90
7388;DHT22;3735;50.136;11.062;2023-03-13T17:07:19;16.00;99.90
7388;DHT22;3735;50.136;11.062;2023-03-13T17:09:50;15.90;99.90
7388;DHT22;3735;50.136;11.062;2023-03-13T17:12:16;15.80;99.90
7388;DHT22;3735;50.136;11.062;2023-03-13T17:14:43;15.80;99.90
7388;DHT22;3735;50.136;11.062;2023-03-13T17:17:20;15.70;99.90
7388;DHT22;3735;50.136;11.062;2023-03-13T17:19:47;15.70;99.90
7388;DHT22;3735;50.136;11.062;2023-03-13T17:22:15;15.70;99.90
7388;DHT22;3735;50.136;11.062;2023-03-13T17:24:42;15.70;99.90
7388;DHT22;3735;50.136;11.062;2023-03-13T17:27:14;15.70;99.90
7388;DHT22;3735;50.136;11.062;2023-03-13T17:29:42;15.70;99.90
7388;DHT22;3735;50.136;11.062;2023-03-13T17:32:10;15.70;99.90
7388;DHT22;3735;50.136;11.062;2023-03-13T17:34:37;15.80;99.90
7388;DHT22;3735;50.136;11.062;2023-03-13T17:37:15;15.80;99.90
7388;DHT22;3735;50.136;11.062;2023-03-13T17:39:43;15.90;99.90
7388;DHT22;3735;50.136;11.062;2023-03-13T17:42:10;15.90;99.90
7388;DHT22;3735;50.136;11.062;2023-03-13T17:44:36;15.90;99.90
7388;DHT22;3735;50.136;11.062;2023-03-13T17:47:23;16.00;99.90
7388;DHT22;3735;50.136;11.062;2023-03-13T17:49:51;15.40;99.90
7388;DHT22;3735;50.136;11.062;2023-03-13T17:52:16;13.80;99.90
7388;DHT22;3735;50.136;11.062;2023-03-13T17:54:43;12.50;99.90
7388;DHT22;3735;50.136;11.062;2023-03-13T17:57:19;11.60;99.90
7388;DHT22;3735;50.136;11.062;2023-03-13T17:59:47;11.00;99.90
7388;DHT22;3735;50.136;11.062;2023-03-13T18:02:16;10.70;99.90
7388;DHT22;3735;50.136;11.062;2023-03-13T18:04:43;10.60;99.90
7388;DHT22;3735;50.136;11.062;2023-03-13T18:07:27;10.40;99.90
7388;DHT22;3735;50.136;11.062;2023-03-13T18:09:54;10.30;99.90
7388;DHT22;3735;50.136;11.062;2023-03-13T18:12:19;10.30;99.90